Orchard Island, Ohio
Current Conditions -  °F | °C
As of 4:35 PM on Friday 24 Oct 2014 (Local Time) from KEDJ Reporting Station
Clear Clear  
Wind Chill: 63°   Ceiling: Unl
Heat Index: 63°   Visibility: 7mi
Dew Point: 37°   Wind: 5mph
Humidity: 39%   Direction: 270°W
Pressure: 30.03"   Gusts: NA
Location:  40.5245°N, 83.9354°W
Report Text: KEDJ 242035Z AUTO 27004KT 7SM CLR 17/03 A3003 RMK AO1
Loading
Personal Weather Stations






























Interactive Weather Map
Tropical Storm Tracking
New forecast layout! Learn more

10-Day Weather Forecast

Advertisements
Track Severe Weather on mobile